Terminal Aerodrome Forecast
Issued by NWS

Home | Current Version | Previous Version | Text Only | Print | Product List | Glossary On
Versions: 1 2 3 4 5 6 7 8 9 10 11 12 13 14 15 16 17
613
FTUS44 KEPZ 010535
TAFTCS
TAF
KTCS 010535Z 0106/0206 30007KT P6SM SCT120 SCT250
     FM011200 VRB04KT P6SM FEW090
     FM011900 10007KT P6SM VCTS SCT090CB BKN150
     FM020100 VRB04KT P6SM BKN120=

USA.gov is the U.S. government's official web portal to all federal, state and local government web resources and services.